createdAt,value
2023-04-15T00:00:17.050Z,231.21
2023-04-15T00:01:17.024Z,230.68
2023-04-15T00:02:17.084Z,230.35
2023-04-15T00:03:17.156Z,231.16
2023-04-15T00:04:17.181Z,230.82
2023-04-15T00:05:16.895Z,230.69
2023-04-15T00:06:16.860Z,230.25
2023-04-15T00:07:16.830Z,230.54
2023-04-15T00:08:16.802Z,229.53
2023-04-15T00:09:16.839Z,229.95
2023-04-15T00:10:16.812Z,229.99
2023-04-15T00:11:16.761Z,229.95
2023-04-15T00:12:16.736Z,229.97
2023-04-15T00:13:16.700Z,229.36
2023-04-15T00:14:16.669Z,229.14
2023-04-15T00:15:16.643Z,228.74
2023-04-15T00:16:16.638Z,228.94
2023-04-15T00:17:16.602Z,228.79
2023-04-15T00:18:16.541Z,228.06
2023-04-15T00:19:16.542Z,228.34
2023-04-15T00:20:16.576Z,228.19
2023-04-15T00:21:16.620Z,228.67
2023-04-15T00:22:16.642Z,227.45
2023-04-15T00:23:16.689Z,228.11
2023-04-15T00:24:16.702Z,227.82
2023-04-15T00:25:16.759Z,227.72
2023-04-15T00:26:16.766Z,227.01
2023-04-15T00:27:16.795Z,227.36
2023-04-15T00:28:16.854Z,227.26
2023-04-15T00:29:16.891Z,227.60
2023-04-15T00:30:16.919Z,227.27
2023-04-15T00:31:17.157Z,226.88
2023-04-15T00:32:16.997Z,227.02
2023-04-15T00:33:17.039Z,227.46
2023-04-15T00:34:17.046Z,228.42
2023-04-15T00:35:17.104Z,227.96
2023-04-15T00:36:17.124Z,227.81
2023-04-15T00:37:17.152Z,228.42
2023-04-15T00:38:17.210Z,227.94
2023-04-15T00:39:17.239Z,228.60
2023-04-15T00:40:17.280Z,229.80
2023-04-15T00:41:17.296Z,229.06
2023-04-15T00:42:17.346Z,229.83
2023-04-15T00:43:17.400Z,229.43
2023-04-15T00:44:17.404Z,229.55
2023-04-15T00:45:17.436Z,230.07
2023-04-15T00:46:17.566Z,230.00
2023-04-15T00:47:17.472Z,230.35
2023-04-15T00:48:17.583Z,230.28
2023-04-15T00:49:17.611Z,230.34
2023-04-15T00:50:17.578Z,230.51
2023-04-15T00:51:17.625Z,229.86
2023-04-15T00:52:17.649Z,230.12
2023-04-15T00:53:17.690Z,230.64
2023-04-15T00:54:17.736Z,231.41
2023-04-15T00:55:17.694Z,231.44
2023-04-15T00:56:17.659Z,231.49
2023-04-15T00:57:17.628Z,231.21
2023-04-15T00:58:17.593Z,231.74
2023-04-15T00:59:17.556Z,232.29
2023-04-15T01:00:17.550Z,231.56
2023-04-15T01:01:17.498Z,231.64
2023-04-15T01:02:17.556Z,231.55
2023-04-15T01:03:17.558Z,231.89
2023-04-15T01:04:17.568Z,232.30
2023-04-15T01:05:17.492Z,231.63
2023-04-15T01:06:17.520Z,232.60
2023-04-15T01:07:17.558Z,232.81
2023-04-15T01:08:17.596Z,231.94
2023-04-15T01:09:17.644Z,232.51
2023-04-15T01:10:17.673Z,232.23
2023-04-15T01:11:17.717Z,232.29
2023-04-15T01:12:17.779Z,232.22
2023-04-15T01:13:17.763Z,232.96
2023-04-15T01:14:17.741Z,232.96
2023-04-15T01:15:17.708Z,233.04
2023-04-15T01:16:17.698Z,233.18
2023-04-15T01:17:17.640Z,233.10
2023-04-15T01:18:17.597Z,232.47
2023-04-15T01:19:17.581Z,233.16
2023-04-15T01:20:17.521Z,233.33
2023-04-15T01:21:17.484Z,233.63
2023-04-15T01:22:17.459Z,233.08
2023-04-15T01:23:17.468Z,233.86
2023-04-15T01:24:17.499Z,232.73
2023-04-15T01:25:17.567Z,233.49
2023-04-15T01:26:17.568Z,232.79
2023-04-15T01:27:17.611Z,233.44
2023-04-15T01:28:17.651Z,233.75
2023-04-15T01:29:17.722Z,233.56
2023-04-15T01:30:17.729Z,233.93
2023-04-15T01:31:17.793Z,234.13
2023-04-15T01:32:17.781Z,234.18
2023-04-15T01:33:17.832Z,233.12
2023-04-15T01:34:17.922Z,233.95
2023-04-15T01:35:17.888Z,234.17
2023-04-15T01:36:17.942Z,234.44
2023-04-15T01:37:17.981Z,234.60
2023-04-15T01:38:18.017Z,234.69
2023-04-15T01:39:18.056Z,234.07
2023-04-15T01:40:18.083Z,234.34
2023-04-15T01:41:18.102Z,234.71
2023-04-15T01:42:18.150Z,233.62
2023-04-15T01:43:18.192Z,234.53
2023-04-15T01:44:18.231Z,234.13
2023-04-15T01:45:18.247Z,234.16
2023-04-15T01:46:18.287Z,234.53
2023-04-15T01:47:18.313Z,233.63
2023-04-15T01:48:18.331Z,234.92
2023-04-15T01:49:18.427Z,234.98
2023-04-15T01:50:18.487Z,234.44
2023-04-15T01:51:18.444Z,235.05
2023-04-15T01:52:18.493Z,235.92
2023-04-15T01:53:18.529Z,234.82
2023-04-15T01:54:18.555Z,234.49
2023-04-15T01:55:18.600Z,234.94
2023-04-15T01:56:18.631Z,234.68
2023-04-15T01:57:18.677Z,235.39
2023-04-15T01:58:18.703Z,235.56
2023-04-15T01:59:18.750Z,234.57
2023-04-15T02:00:18.782Z,234.45
2023-04-15T02:01:18.903Z,236.39
2023-04-15T02:02:18.960Z,235.68
2023-04-15T02:03:18.930Z,235.44
2023-04-15T02:04:18.943Z,236.37
2023-04-15T02:05:18.954Z,235.39
2023-04-15T02:06:18.990Z,235.17
2023-04-15T02:07:18.993Z,235.99
2023-04-15T02:08:19.035Z,235.21
2023-04-15T02:09:19.088Z,236.48
2023-04-15T02:10:19.103Z,236.24
2023-04-15T02:11:19.136Z,235.25
2023-04-15T02:12:19.233Z,235.28
2023-04-15T02:13:19.204Z,236.87
2023-04-15T02:14:19.274Z,235.60
2023-04-15T02:15:19.298Z,236.08
2023-04-15T02:16:19.532Z,236.21
2023-04-15T02:17:19.416Z,235.44
2023-04-15T02:18:19.322Z,235.50
2023-04-15T02:19:19.304Z,235.66
2023-04-15T02:20:19.266Z,235.73
2023-04-15T02:21:19.219Z,236.12
2023-04-15T02:22:19.191Z,236.58
2023-04-15T02:23:19.167Z,236.83
2023-04-15T02:24:19.112Z,236.65
2023-04-15T02:25:19.089Z,236.77
2023-04-15T02:26:19.063Z,237.11
2023-04-15T02:27:19.076Z,236.14
2023-04-15T02:28:19.159Z,236.81
2023-04-15T02:29:19.122Z,236.73
2023-04-15T02:30:19.157Z,237.30
2023-04-15T02:31:19.216Z,237.03
2023-04-15T02:32:19.312Z,236.13
2023-04-15T02:33:19.240Z,237.95
2023-04-15T02:34:19.300Z,236.13
2023-04-15T02:35:19.315Z,235.71
2023-04-15T02:36:19.551Z,236.77
2023-04-15T02:37:19.407Z,234.75
2023-04-15T02:38:19.456Z,232.70
2023-04-15T02:39:19.494Z,229.79
2023-04-15T02:40:19.517Z,229.81
2023-04-15T02:41:19.528Z,226.10
2023-04-15T02:42:19.584Z,222.92
2023-04-15T02:43:19.617Z,217.65
2023-04-15T02:44:19.727Z,215.99
2023-04-15T02:45:19.708Z,215.34
2023-04-15T02:46:19.745Z,211.85
2023-04-15T02:47:19.816Z,208.21
2023-04-15T02:48:19.744Z,207.49
2023-04-15T02:49:19.718Z,203.83
2023-04-15T02:50:19.712Z,201.59
2023-04-15T02:51:19.777Z,200.45
2023-04-15T02:52:19.673Z,197.09
2023-04-15T02:53:19.607Z,195.07
2023-04-15T02:54:19.598Z,194.16
2023-04-15T02:55:19.580Z,195.69
2023-04-15T02:56:19.630Z,192.94
2023-04-15T02:57:19.523Z,188.96
2023-04-15T02:58:19.496Z,187.16
2023-04-15T02:59:19.488Z,186.09
2023-04-15T03:00:19.456Z,186.17
2023-04-15T03:01:19.448Z,186.14
2023-04-15T03:02:19.477Z,181.50
2023-04-15T03:03:19.512Z,178.44
2023-04-15T03:04:19.487Z,177.64
2023-04-15T03:05:19.377Z,177.42
2023-04-15T03:06:19.336Z,177.09
2023-04-15T03:07:19.280Z,173.96
2023-04-15T03:08:19.261Z,173.59
2023-04-15T03:09:19.231Z,172.88
2023-04-15T03:10:19.253Z,171.33
2023-04-15T03:11:19.188Z,170.49
2023-04-15T03:12:19.182Z,168.86
2023-04-15T03:13:19.153Z,168.63
2023-04-15T03:14:19.115Z,164.79
2023-04-15T03:15:19.110Z,165.02
2023-04-15T03:16:19.167Z,163.62
2023-04-15T03:17:19.080Z,161.20
2023-04-15T03:18:19.102Z,161.33
2023-04-15T03:19:18.991Z,162.78
2023-04-15T03:20:19.012Z,162.88
2023-04-15T03:21:18.953Z,160.76
2023-04-15T03:22:18.946Z,160.90
2023-04-15T03:23:18.930Z,160.75
2023-04-15T03:24:18.912Z,160.09
2023-04-15T03:25:18.879Z,160.75
2023-04-15T03:26:18.870Z,161.97
2023-04-15T03:27:18.830Z,162.26
2023-04-15T03:28:18.825Z,165.29
2023-04-15T03:29:18.796Z,164.33
2023-04-15T03:30:18.783Z,164.95
2023-04-15T03:31:18.795Z,165.02
2023-04-15T03:32:18.752Z,165.90
2023-04-15T03:33:18.713Z,167.26
2023-04-15T03:34:18.814Z,167.64
2023-04-15T03:35:18.695Z,168.31
2023-04-15T03:36:18.645Z,170.42
2023-04-15T03:37:18.609Z,170.47
2023-04-15T03:38:18.580Z,170.74
2023-04-15T03:39:18.551Z,171.33
2023-04-15T03:40:18.557Z,172.69
2023-04-15T03:41:18.509Z,174.98
2023-04-15T03:42:18.519Z,176.78
2023-04-15T03:43:18.464Z,178.13
2023-04-15T03:44:18.450Z,178.41
2023-04-15T03:45:18.420Z,180.10
2023-04-15T03:46:18.523Z,180.18
2023-04-15T03:47:18.390Z,181.26
2023-04-15T03:48:18.559Z,180.19
2023-04-15T03:49:18.371Z,181.40
2023-04-15T03:50:18.322Z,182.33
2023-04-15T03:51:18.350Z,182.65
2023-04-15T03:52:18.359Z,184.40
2023-04-15T03:53:18.394Z,184.62
2023-04-15T03:54:18.418Z,183.56
2023-04-15T03:55:18.477Z,186.80
2023-04-15T03:56:18.401Z,186.84
2023-04-15T03:57:18.393Z,186.92
2023-04-15T03:58:18.365Z,187.08
2023-04-15T03:59:18.329Z,187.13
2023-04-15T04:00:18.340Z,188.39
2023-04-15T04:01:18.340Z,188.77
2023-04-15T04:02:18.347Z,188.89
2023-04-15T04:03:18.387Z,189.42
2023-04-15T04:04:18.289Z,190.83
2023-04-15T04:05:18.221Z,189.86
2023-04-15T04:06:18.201Z,190.57
2023-04-15T04:07:18.222Z,190.54
2023-04-15T04:08:18.171Z,190.88
2023-04-15T04:09:18.141Z,192.51
2023-04-15T04:10:18.178Z,191.98
2023-04-15T04:11:18.214Z,190.98
2023-04-15T04:12:18.212Z,191.47
2023-04-15T04:13:18.260Z,188.17
2023-04-15T04:14:18.324Z,185.85
2023-04-15T04:15:18.385Z,181.84
2023-04-15T04:16:18.477Z,180.27
2023-04-15T04:17:18.369Z,178.27
2023-04-15T04:18:18.324Z,178.54
2023-04-15T04:19:18.352Z,176.88
2023-04-15T04:20:18.329Z,175.20
2023-04-15T04:21:18.280Z,171.99
2023-04-15T04:22:18.263Z,170.24
2023-04-15T04:23:18.227Z,167.59
2023-04-15T04:24:18.237Z,165.47
2023-04-15T04:25:18.222Z,165.14
2023-04-15T04:26:18.214Z,164.16
2023-04-15T04:27:18.200Z,162.58
2023-04-15T04:28:18.191Z,162.58
2023-04-15T04:29:18.222Z,159.25
2023-04-15T04:30:18.251Z,158.54
2023-04-15T04:31:18.208Z,157.43
2023-04-15T04:32:18.190Z,155.11
2023-04-15T04:33:18.178Z,155.49
2023-04-15T04:34:18.180Z,154.20
2023-04-15T04:35:18.200Z,152.74
2023-04-15T04:36:18.226Z,151.77
2023-04-15T04:37:18.205Z,150.50
2023-04-15T04:38:18.211Z,149.43
2023-04-15T04:39:18.195Z,147.30
2023-04-15T04:40:18.195Z,147.42
2023-04-15T04:41:18.192Z,146.69
2023-04-15T04:42:18.189Z,143.23
2023-04-15T04:43:18.192Z,140.58
2023-04-15T04:44:18.244Z,139.87
2023-04-15T04:45:18.225Z,138.49
2023-04-15T04:46:18.340Z,137.64
2023-04-15T04:47:18.232Z,136.66
2023-04-15T04:48:18.251Z,136.22
2023-04-15T04:49:18.244Z,137.17
2023-04-15T04:50:18.269Z,133.48
2023-04-15T04:51:18.285Z,134.21
2023-04-15T04:52:18.288Z,133.06
2023-04-15T04:53:18.325Z,132.34
2023-04-15T04:54:18.304Z,132.79
2023-04-15T04:55:18.306Z,131.82
2023-04-15T04:56:18.344Z,131.34
2023-04-15T04:57:18.316Z,134.34
2023-04-15T04:58:18.325Z,131.67
2023-04-15T04:59:19.403Z,130.51
2023-04-15T05:00:18.325Z,130.25
2023-04-15T05:01:18.383Z,128.37
2023-04-15T05:02:18.411Z,128.64
2023-04-15T05:03:18.441Z,128.21
2023-04-15T05:04:18.412Z,128.25
2023-04-15T05:05:18.363Z,128.35
2023-04-15T05:06:18.390Z,128.23
2023-04-15T05:07:18.366Z,128.98
2023-04-15T05:08:18.385Z,131.50
2023-04-15T05:09:18.371Z,130.06
2023-04-15T05:10:18.442Z,130.41
2023-04-15T05:11:18.408Z,129.34
2023-04-15T05:12:18.414Z,129.37
2023-04-15T05:13:18.403Z,129.14
2023-04-15T05:14:18.415Z,130.49
2023-04-15T05:15:18.416Z,131.52
2023-04-15T05:16:18.480Z,132.40
2023-04-15T05:17:18.417Z,134.44
2023-04-15T05:18:18.426Z,134.47
2023-04-15T05:19:18.416Z,134.35
2023-04-15T05:20:18.407Z,134.40
2023-04-15T05:21:18.382Z,134.25
2023-04-15T05:22:18.364Z,133.66
2023-04-15T05:23:18.348Z,134.80
2023-04-15T05:24:18.334Z,133.29
2023-04-15T05:25:18.326Z,134.49
2023-04-15T05:26:18.335Z,135.49
2023-04-15T05:27:18.304Z,135.08
2023-04-15T05:28:18.278Z,133.34
2023-04-15T05:29:18.244Z,134.77
2023-04-15T05:30:18.428Z,135.30
2023-04-15T05:31:18.322Z,133.75
2023-04-15T05:32:18.263Z,133.12
2023-04-15T05:33:18.210Z,133.61
2023-04-15T05:34:18.245Z,133.01
2023-04-15T05:35:18.163Z,133.72
2023-04-15T05:36:18.178Z,133.73
2023-04-15T05:37:18.145Z,132.81
2023-04-15T05:38:18.147Z,132.04
2023-04-15T05:39:18.126Z,131.25
2023-04-15T05:40:18.120Z,132.73
2023-04-15T05:41:19.864Z,129.80
2023-04-15T05:42:18.151Z,129.43
2023-04-15T05:43:18.173Z,129.06
2023-04-15T05:44:18.279Z,131.09
2023-04-15T05:45:18.324Z,128.21
2023-04-15T05:46:18.253Z,126.75
2023-04-15T05:47:18.301Z,127.61
2023-04-15T05:48:18.303Z,126.05
2023-04-15T05:49:18.308Z,124.11
2023-04-15T05:50:18.331Z,122.64
2023-04-15T05:51:18.395Z,123.05
2023-04-15T05:52:18.370Z,122.73
2023-04-15T05:53:18.383Z,121.77
2023-04-15T05:54:20.032Z,122.31
2023-04-15T05:55:18.436Z,121.21
2023-04-15T05:56:18.453Z,121.55
2023-04-15T05:57:18.470Z,119.09
2023-04-15T05:58:18.560Z,116.93
2023-04-15T05:59:18.504Z,114.88
2023-04-15T06:00:18.527Z,112.14
2023-04-15T06:01:18.564Z,113.27
2023-04-15T06:02:18.688Z,110.71
2023-04-15T06:03:18.710Z,108.91
2023-04-15T06:04:18.711Z,108.37
2023-04-15T06:05:18.737Z,106.62
2023-04-15T06:06:18.685Z,106.18
2023-04-15T06:07:18.769Z,106.91
2023-04-15T06:08:18.758Z,105.80
2023-04-15T06:09:18.766Z,105.50
2023-04-15T06:10:18.784Z,106.07
2023-04-15T06:11:18.887Z,107.43
2023-04-15T06:12:18.827Z,108.32
2023-04-15T06:13:18.918Z,107.43
2023-04-15T06:14:18.886Z,107.47
2023-04-15T06:15:18.897Z,106.63
2023-04-15T06:16:18.946Z,109.32
2023-04-15T06:17:18.980Z,108.49
2023-04-15T06:18:18.925Z,108.51
2023-04-15T06:19:18.916Z,108.59
2023-04-15T06:20:18.930Z,108.41
2023-04-15T06:21:18.911Z,108.55
2023-04-15T06:22:18.880Z,112.38
2023-04-15T06:23:18.923Z,109.77
2023-04-15T06:24:18.878Z,111.34
2023-04-15T06:25:18.855Z,106.31
2023-04-15T06:26:18.858Z,107.60
2023-04-15T06:27:18.830Z,108.34
2023-04-15T06:28:18.815Z,106.40
2023-04-15T06:29:18.809Z,105.11
2023-04-15T06:30:18.810Z,107.12
2023-04-15T06:31:18.809Z,110.39
2023-04-15T06:32:18.784Z,107.61
2023-04-15T06:33:18.780Z,109.31
2023-04-15T06:34:18.753Z,109.77
2023-04-15T06:35:18.756Z,109.88
2023-04-15T06:36:18.769Z,107.64
2023-04-15T06:37:18.797Z,108.90
2023-04-15T06:38:18.797Z,108.92
2023-04-15T06:39:18.785Z,107.35
2023-04-15T06:40:18.830Z,104.81
2023-04-15T06:41:18.756Z,102.71
2023-04-15T06:42:18.833Z,100.73
2023-04-15T06:43:18.730Z,99.98
2023-04-15T06:44:18.715Z,98.32
2023-04-15T06:45:18.702Z,95.44
2023-04-15T06:46:18.845Z,91.68
2023-04-15T06:47:18.697Z,90.14
2023-04-15T06:48:18.669Z,90.38
2023-04-15T06:49:18.666Z,87.36
2023-04-15T06:50:18.644Z,86.12
2023-04-15T06:51:18.645Z,86.54
2023-04-15T06:52:19.038Z,83.26
2023-04-15T06:53:18.626Z,83.28
2023-04-15T06:54:18.615Z,81.79
2023-04-15T06:55:18.614Z,78.39
2023-04-15T06:56:18.579Z,78.40
2023-04-15T06:57:18.613Z,75.12
2023-04-15T06:58:18.628Z,75.22
2023-04-15T06:59:18.628Z,72.11
2023-04-15T07:00:18.601Z,69.43
2023-04-15T07:01:18.632Z,67.15
2023-04-15T07:02:19.138Z,66.62
2023-04-15T07:03:18.645Z,66.55
2023-04-15T07:04:18.649Z,63.49
2023-04-15T07:05:18.587Z,62.55
2023-04-15T07:06:18.584Z,58.22
2023-04-15T07:07:19.053Z,55.51
2023-04-15T07:08:18.545Z,53.56
2023-04-15T07:09:18.526Z,50.42
2023-04-15T07:10:18.526Z,45.75
2023-04-15T07:11:18.536Z,48.12
2023-04-15T07:12:18.533Z,48.85
2023-04-15T07:13:18.533Z,50.11
2023-04-15T07:14:18.545Z,54.84
2023-04-15T07:15:18.482Z,56.95
2023-04-15T07:16:18.536Z,60.02
2023-04-15T07:17:18.561Z,63.45
2023-04-15T07:18:18.485Z,66.40
2023-04-15T07:19:18.443Z,71.84
2023-04-15T07:20:18.446Z,73.52
2023-04-15T07:21:18.433Z,76.30
2023-04-15T07:22:18.528Z,80.32
2023-04-15T07:23:18.385Z,82.91
2023-04-15T07:24:18.385Z,86.32
2023-04-15T07:25:18.373Z,90.63
2023-04-15T07:26:18.360Z,93.19
2023-04-15T07:27:18.383Z,96.65
2023-04-15T07:28:18.320Z,98.93
2023-04-15T07:29:18.317Z,101.74
2023-04-15T07:30:18.286Z,106.35
2023-04-15T07:31:18.494Z,105.20
2023-04-15T07:32:18.297Z,107.73
2023-04-15T07:33:18.265Z,111.52
2023-04-15T07:34:18.213Z,113.45
2023-04-15T07:35:18.202Z,115.73
2023-04-15T07:36:18.177Z,117.45
2023-04-15T07:37:18.217Z,117.50
2023-04-15T07:38:18.122Z,119.84
2023-04-15T07:39:18.136Z,122.63
2023-04-15T07:40:18.223Z,124.78
2023-04-15T07:41:18.281Z,126.81
2023-04-15T07:42:18.280Z,127.80
2023-04-15T07:43:18.337Z,129.56
2023-04-15T07:44:18.412Z,129.08
2023-04-15T07:45:18.453Z,131.73
2023-04-15T07:46:18.498Z,132.27
2023-04-15T07:47:18.630Z,131.80
2023-04-15T07:48:18.579Z,133.57
2023-04-15T07:49:18.603Z,134.61
2023-04-15T07:50:18.793Z,135.95
2023-04-15T07:51:18.681Z,137.53
2023-04-15T07:52:18.769Z,138.13
2023-04-15T07:53:18.770Z,138.48
2023-04-15T07:54:18.810Z,139.33
2023-04-15T07:55:18.854Z,141.07
2023-04-15T07:56:18.904Z,141.64
2023-04-15T07:57:18.937Z,140.72
2023-04-15T07:58:18.957Z,142.87
2023-04-15T07:59:19.024Z,143.04
2023-04-15T08:00:19.032Z,143.81
2023-04-15T08:01:19.131Z,146.43
2023-04-15T08:02:19.221Z,147.67
2023-04-15T08:03:19.255Z,140.69
2023-04-15T08:04:19.318Z,133.04
2023-04-15T08:05:19.302Z,127.28
2023-04-15T08:06:19.245Z,120.02
2023-04-15T08:07:19.232Z,114.28
2023-04-15T08:08:19.252Z,108.02
2023-04-15T08:09:19.284Z,100.27
2023-04-15T08:10:19.347Z,96.64
2023-04-15T08:11:19.351Z,85.46
2023-04-15T08:12:19.464Z,79.73
2023-04-15T08:13:19.444Z,75.54
2023-04-15T08:14:19.473Z,69.30
2023-04-15T08:15:19.510Z,60.36
2023-04-15T08:16:19.624Z,49.87
2023-04-15T08:17:19.605Z,53.90
2023-04-15T08:18:19.629Z,56.17
2023-04-15T08:19:19.653Z,55.39
2023-04-15T08:20:19.714Z,56.79
2023-04-15T08:21:19.719Z,59.52
2023-04-15T08:22:21.248Z,59.07
2023-04-15T08:23:19.945Z,63.73
2023-04-15T08:24:19.908Z,64.21
2023-04-15T08:25:20.038Z,67.36
2023-04-15T08:26:19.924Z,65.06
2023-04-15T08:27:20.020Z,68.94
2023-04-15T08:28:20.032Z,71.18
2023-04-15T08:29:19.992Z,72.19
2023-04-15T08:30:19.997Z,76.13
2023-04-15T08:31:20.151Z,78.16
2023-04-15T08:32:20.027Z,77.19
2023-04-15T08:33:20.086Z,80.33
2023-04-15T08:34:20.147Z,78.52
2023-04-15T08:35:20.071Z,82.49
2023-04-15T08:36:20.049Z,81.29
2023-04-15T08:37:20.049Z,81.36
2023-04-15T08:38:20.065Z,84.50
2023-04-15T08:39:20.134Z,85.12
2023-04-15T08:40:20.209Z,87.84
2023-04-15T08:41:20.101Z,88.02
2023-04-15T08:42:20.104Z,88.16
2023-04-15T08:43:20.095Z,89.22
2023-04-15T08:44:20.082Z,90.52
2023-04-15T08:45:20.096Z,89.62
2023-04-15T08:46:20.099Z,91.89
2023-04-15T08:47:20.077Z,92.75
2023-04-15T08:48:20.119Z,95.16
2023-04-15T08:49:20.032Z,92.36
2023-04-15T08:50:20.071Z,94.33
2023-04-15T08:51:20.033Z,97.97
2023-04-15T08:52:19.999Z,105.77
2023-04-15T08:53:20.004Z,106.50
2023-04-15T08:54:19.979Z,105.20
2023-04-15T08:55:20.114Z,103.86
2023-04-15T08:56:19.973Z,109.68
2023-04-15T08:57:19.963Z,108.94
2023-04-15T08:58:19.929Z,111.06
2023-04-15T08:59:19.920Z,110.37
2023-04-15T09:00:19.940Z,110.18
2023-04-15T09:01:19.978Z,108.53
2023-04-15T09:02:19.974Z,115.00
2023-04-15T09:03:20.211Z,123.02
2023-04-15T09:04:20.053Z,129.63
2023-04-15T09:05:19.784Z,140.48
2023-04-15T09:06:19.754Z,144.25
2023-04-15T09:07:19.731Z,148.64
2023-04-15T09:08:19.819Z,151.60
2023-04-15T09:09:19.767Z,155.96
2023-04-15T09:10:19.651Z,159.65
2023-04-15T09:11:20.236Z,162.79
2023-04-15T09:12:19.644Z,165.92
2023-04-15T09:13:19.700Z,168.89
2023-04-15T09:14:19.605Z,169.00
2023-04-15T09:15:19.536Z,172.10
2023-04-15T09:16:19.578Z,174.09
2023-04-15T09:17:19.578Z,179.47
2023-04-15T09:18:19.502Z,179.68
2023-04-15T09:19:19.467Z,178.26
2023-04-15T09:20:19.536Z,183.93
2023-04-15T09:21:19.501Z,186.66
2023-04-15T09:22:19.409Z,185.31
2023-04-15T09:23:19.535Z,193.84
2023-04-15T09:24:19.376Z,195.42
2023-04-15T09:25:19.381Z,193.55
2023-04-15T09:26:19.447Z,198.19
2023-04-15T09:27:19.342Z,195.88
2023-04-15T09:28:19.411Z,201.04
2023-04-15T09:29:19.454Z,198.46
2023-04-15T09:30:19.314Z,202.72
2023-04-15T09:31:19.358Z,205.23
2023-04-15T09:32:19.316Z,205.11
2023-04-15T09:33:19.465Z,204.93
2023-04-15T09:34:19.379Z,207.77
2023-04-15T09:35:19.347Z,208.47
2023-04-15T09:36:19.299Z,211.60
2023-04-15T09:37:31.688Z,212.58
2023-04-15T09:38:20.283Z,212.70
2023-04-15T09:39:19.229Z,213.16
2023-04-15T09:40:19.186Z,213.73
2023-04-15T09:41:19.167Z,214.68
2023-04-15T09:42:19.129Z,217.41
2023-04-15T09:43:19.073Z,219.29
2023-04-15T09:44:19.107Z,218.34
2023-04-15T09:45:18.994Z,220.65
2023-04-15T09:46:19.102Z,221.38
2023-04-15T09:47:19.047Z,222.53
2023-04-15T09:48:19.056Z,226.62
2023-04-15T09:49:19.107Z,226.68
2023-04-15T09:50:19.075Z,226.08
2023-04-15T09:51:19.110Z,228.21
2023-04-15T09:52:19.158Z,228.40
2023-04-15T09:53:19.257Z,228.35
2023-04-15T09:54:19.305Z,229.71
2023-04-15T09:55:19.215Z,232.44
2023-04-15T09:56:19.253Z,232.46
2023-04-15T09:57:19.154Z,232.61
2023-04-15T09:58:19.110Z,232.14
2023-04-15T09:59:20.112Z,233.22
2023-04-15T10:00:19.021Z,232.91
2023-04-15T10:01:19.052Z,236.10
2023-04-15T10:02:19.177Z,237.17
2023-04-15T10:03:19.137Z,235.49
2023-04-15T10:04:18.985Z,235.67
2023-04-15T10:05:18.943Z,237.00
2023-04-15T10:06:18.983Z,237.63
2023-04-15T10:07:18.986Z,237.22
2023-04-15T10:08:19.018Z,238.93
2023-04-15T10:09:19.041Z,239.87
2023-04-15T10:10:19.061Z,239.97
2023-04-15T10:11:19.079Z,241.14
2023-04-15T10:12:19.105Z,240.63
2023-04-15T10:13:19.132Z,241.78
2023-04-15T10:14:19.203Z,240.64
2023-04-15T10:15:19.207Z,242.54
2023-04-15T10:16:19.267Z,242.66
2023-04-15T10:17:19.239Z,242.87
2023-04-15T10:18:19.272Z,243.92
2023-04-15T10:19:19.310Z,244.56
2023-04-15T10:20:19.339Z,243.79
2023-04-15T10:21:19.380Z,246.61
2023-04-15T10:22:19.400Z,244.92
2023-04-15T10:23:19.430Z,246.79
2023-04-15T10:24:19.466Z,246.46
2023-04-15T10:25:19.528Z,246.82
2023-04-15T10:26:19.522Z,248.10
2023-04-15T10:27:19.552Z,247.21
2023-04-15T10:28:19.598Z,247.52
2023-04-15T10:29:19.664Z,248.82
2023-04-15T10:30:19.681Z,247.27
2023-04-15T10:31:19.706Z,246.72
2023-04-15T10:32:19.812Z,249.00
2023-04-15T10:33:19.714Z,249.69
2023-04-15T10:34:19.721Z,247.86
2023-04-15T10:35:19.730Z,247.37
2023-04-15T10:36:19.747Z,245.98
2023-04-15T10:37:19.758Z,248.34
2023-04-15T10:38:19.816Z,247.13
2023-04-15T10:39:19.826Z,248.34
2023-04-15T10:40:19.858Z,247.33
2023-04-15T10:41:20.709Z,249.22
2023-04-15T10:42:19.885Z,248.32
2023-04-15T10:43:19.895Z,249.41
2023-04-15T10:44:19.930Z,249.06
2023-04-15T10:45:19.933Z,246.90
2023-04-15T10:46:20.005Z,249.66
2023-04-15T10:47:19.993Z,247.81
2023-04-15T10:48:20.011Z,248.09
2023-04-15T10:49:20.047Z,248.13
2023-04-15T10:50:20.043Z,249.10
2023-04-15T10:51:20.062Z,247.78
2023-04-15T10:52:20.081Z,248.05
2023-04-15T10:53:21.791Z,247.25
2023-04-15T10:54:20.141Z,247.95
2023-04-15T10:55:20.622Z,248.03
2023-04-15T10:56:20.193Z,248.70
2023-04-15T10:57:20.156Z,248.18
2023-04-15T10:58:20.201Z,247.99
2023-04-15T10:59:21.411Z,247.14
2023-04-15T11:00:20.216Z,247.42
2023-04-15T11:01:20.273Z,247.95
2023-04-15T11:02:20.343Z,248.68
2023-04-15T11:03:20.353Z,249.15
2023-04-15T11:04:20.411Z,249.22
2023-04-15T11:05:20.191Z,249.23
2023-04-15T11:06:20.175Z,249.16
2023-04-15T11:07:20.105Z,249.30
2023-04-15T11:08:20.071Z,248.33
2023-04-15T11:09:20.001Z,248.58
2023-04-15T11:10:19.956Z,248.53
2023-04-15T11:11:19.937Z,248.37
2023-04-15T11:12:19.872Z,247.72
2023-04-15T11:13:19.838Z,247.61
2023-04-15T11:14:19.863Z,248.83
2023-04-15T11:15:19.842Z,247.01
2023-04-15T11:16:19.934Z,248.66
2023-04-15T11:17:19.869Z,248.31
2023-04-15T11:18:19.876Z,247.69
2023-04-15T11:19:19.901Z,248.07
2023-04-15T11:20:19.903Z,248.07
2023-04-15T11:21:19.957Z,248.14
2023-04-15T11:22:19.911Z,248.30
2023-04-15T11:23:19.970Z,246.53
2023-04-15T11:24:19.952Z,247.36
2023-04-15T11:25:19.949Z,247.48
2023-04-15T11:26:19.923Z,247.58
2023-04-15T11:27:19.898Z,247.72
2023-04-15T11:28:19.824Z,248.02
2023-04-15T11:29:19.789Z,248.34
2023-04-15T11:30:19.799Z,248.56
2023-04-15T11:31:19.735Z,248.59
2023-04-15T11:32:19.809Z,247.45
2023-04-15T11:33:19.624Z,248.24
2023-04-15T11:34:19.614Z,248.01
2023-04-15T11:35:19.646Z,247.75
2023-04-15T11:36:19.671Z,247.39
2023-04-15T11:37:19.671Z,247.81
2023-04-15T11:38:19.755Z,247.54
2023-04-15T11:39:19.698Z,247.66
2023-04-15T11:40:19.710Z,247.15
2023-04-15T11:41:19.698Z,247.13
2023-04-15T11:42:19.673Z,247.69
2023-04-15T11:43:19.673Z,248.44
2023-04-15T11:44:19.668Z,247.41
2023-04-15T11:45:19.652Z,250.00
2023-04-15T11:46:19.794Z,249.49
2023-04-15T11:47:19.729Z,248.65
2023-04-15T11:48:19.624Z,249.17
2023-04-15T11:49:19.590Z,249.26
2023-04-15T11:50:19.537Z,248.35
2023-04-15T11:51:19.486Z,248.57
2023-04-15T11:52:19.438Z,247.66
2023-04-15T11:53:19.395Z,247.94
2023-04-15T11:54:19.351Z,249.45
2023-04-15T11:55:19.362Z,248.13
2023-04-15T11:56:19.269Z,246.43
2023-04-15T11:57:19.223Z,247.66
2023-04-15T11:58:19.186Z,245.99
2023-04-15T11:59:19.134Z,246.27
2023-04-15T12:00:19.120Z,247.65
2023-04-15T12:01:19.060Z,247.29
2023-04-15T12:02:19.159Z,247.97
2023-04-15T12:03:19.199Z,247.70
2023-04-15T12:04:21.478Z,244.81
2023-04-15T12:05:18.976Z,244.90
2023-04-15T12:06:18.866Z,245.40
2023-04-15T12:07:18.796Z,245.20
2023-04-15T12:08:18.776Z,246.75
2023-04-15T12:09:18.725Z,248.34
2023-04-15T12:10:18.698Z,247.13
2023-04-15T12:11:18.639Z,246.99
2023-04-15T12:12:18.596Z,246.37
2023-04-15T12:13:18.594Z,246.69
2023-04-15T12:14:18.540Z,247.65
2023-04-15T12:15:18.497Z,249.87
2023-04-15T12:16:18.512Z,249.93
2023-04-15T12:17:18.425Z,249.95
2023-04-15T12:18:18.510Z,249.19
2023-04-15T12:19:18.340Z,247.83
2023-04-15T12:20:18.270Z,248.22
2023-04-15T12:21:18.300Z,248.32
2023-04-15T12:22:18.258Z,249.35
2023-04-15T12:23:18.150Z,247.19
2023-04-15T12:24:18.111Z,249.02
2023-04-15T12:25:18.080Z,247.49
2023-04-15T12:26:18.023Z,249.32
2023-04-15T12:27:18.041Z,248.16
2023-04-15T12:28:18.086Z,246.65
2023-04-15T12:29:18.031Z,247.38
2023-04-15T12:30:18.021Z,246.99
2023-04-15T12:31:18.031Z,246.85